logo
Search for airport 
image banner adimage banner adimage banner ad
image banner ad

LIAP - L'aquila/Parchi

Located in L'aquila, Italy

ICAO - LIAP, IATA - QAQ

Data provided by Airmate  

General information

Coordinates: N42°22'46" E13°18'34"
Elevation is 2210 feet MSL.
 
View others Airports in Abruzzi

Operational data

Special qualification required
Current time UTC:
Current local time:
Weather at : LIQN - Rieti ( 38 km )
METAR: LIQN 171350Z VRB04KT CAVOK 36/07 Q1016
View NOTAMs / SUP AIP / TFR affecting this airport [VIEW]
Communications frequencies: [VIEW]

Runways:

RWY identifierQFULength (ft)Width (ft)SurfaceLDA (ft)
18178°462685ASP
36358°462685ASP

Airport contact information

Address: L'aquila Italy

Other aviation service providers

Flight schools

Pelissier Helicopter S.R.L

Pelissier Helicopter S.R.L

Sunrise Aviation S.R.L

Sunrise Aviation S.R.L
info@sunriseaviation.eu+390862020209
+393483638684-+39339
Rated:
View ratings:
[VIEW]

Aviation club (not for profit)

Aero Club L’aquila

Aero Club L’aquila
info@aeroclublaquila.it+39 08621965795
+393245337367

Satellite view of LIAP